Terminal Aerodrome Forecast
Issued by NWS New Orleans/Baton Rouge, LA

Home | Current Version | Previous Version | Text Only | Print | Product List | Glossary On
Versions: 1 2 3 4 5 6 7 8 9 10 11 12 13
000
FTUS44 KLIX 230523
TAFNEW
TAF
KNEW 230523Z 2306/2406 17004KT P6SM FEW040
     FM231500 03004KT P6SM FEW030 PROB30 2318/2323 4SM TSRA BKN035CB
     FM232300 11007KT P6SM SCT035=

USA.gov is the U.S. government's official web portal to all federal, state and local government web resources and services.